createdAt,value
2019-03-12T00:02:15.503Z,100069.06
2019-03-12T00:04:47.305Z,100075.19
2019-03-12T00:07:19.138Z,100071.92
2019-03-12T00:09:53.716Z,100079.42
2019-03-12T00:12:24.543Z,100082.17
2019-03-12T00:14:56.455Z,100083.58
2019-03-12T00:17:28.291Z,100081.09
2019-03-12T00:20:00.363Z,100077.55
2019-03-12T00:22:33.648Z,100084.16
2019-03-12T00:25:05.923Z,100090.44
2019-03-12T00:27:40.889Z,100087.47
2019-03-12T00:30:12.681Z,100093.33
2019-03-12T00:32:44.526Z,100091.53
2019-03-12T00:35:16.327Z,100098.86
2019-03-12T00:37:48.134Z,100102.23
2019-03-12T00:40:20.204Z,100096.64
2019-03-12T00:42:52.133Z,100100.95
2019-03-12T00:45:23.929Z,100106.91
2019-03-12T00:47:55.767Z,100109.00
2019-03-12T00:50:27.589Z,100109.24
2019-03-12T00:52:59.328Z,100109.73
2019-03-12T00:55:31.161Z,100111.22
2019-03-12T00:58:03.465Z,100119.78
2019-03-12T01:00:36.348Z,100119.78
2019-03-12T01:03:08.094Z,100124.51
2019-03-12T01:05:39.911Z,100133.38
2019-03-12T01:08:11.980Z,100140.48
2019-03-12T01:10:43.827Z,100143.92
2019-03-12T01:13:19.821Z,100150.92
2019-03-12T01:15:51.737Z,100151.70
2019-03-12T01:18:23.540Z,100152.95
2019-03-12T01:20:55.333Z,100155.49
2019-03-12T01:23:27.114Z,100159.48
2019-03-12T01:26:00.210Z,100167.22
2019-03-12T01:28:32.160Z,100175.20
2019-03-12T01:31:03.954Z,100167.83
2019-03-12T01:33:35.812Z,100163.16
2019-03-12T01:36:07.586Z,100174.14
2019-03-12T01:38:39.395Z,100176.33
2019-03-12T01:41:11.239Z,100188.23
2019-03-12T01:43:43.176Z,100182.84
2019-03-12T01:46:14.916Z,100194.64
2019-03-12T01:48:46.742Z,100198.86
2019-03-12T01:51:18.523Z,100200.72
2019-03-12T01:53:50.321Z,100200.58
2019-03-12T01:56:22.103Z,100203.47
2019-03-12T01:58:54.249Z,100210.91
2019-03-12T02:01:26.044Z,100216.89
2019-03-12T02:03:57.806Z,100217.66
2019-03-12T02:06:29.610Z,100220.73
2019-03-12T02:09:01.353Z,100220.77
2019-03-12T02:11:34.780Z,100224.47
2019-03-12T02:14:28.230Z,100231.95
2019-03-12T02:17:00.124Z,100233.14
2019-03-12T02:19:31.933Z,100241.80
2019-03-12T02:22:04.074Z,100242.23
2019-03-12T02:24:35.832Z,100243.74
2019-03-12T02:27:07.693Z,100249.97
2019-03-12T02:29:39.466Z,100249.63
2019-03-12T02:32:11.345Z,100253.27
2019-03-12T02:34:43.109Z,100261.62
2019-03-12T02:37:14.947Z,100259.74
2019-03-12T02:39:46.737Z,100265.91
2019-03-12T02:42:18.736Z,100269.80
2019-03-12T02:44:50.558Z,100266.04
2019-03-12T02:47:23.467Z,100273.09
2019-03-12T02:49:55.274Z,100275.39
2019-03-12T02:52:27.038Z,100290.02
2019-03-12T02:54:58.830Z,100284.84
2019-03-12T02:57:30.708Z,100289.77
2019-03-12T03:00:02.819Z,100291.31
2019-03-12T03:02:35.246Z,100292.69
2019-03-12T03:05:07.539Z,100298.36
2019-03-12T03:08:05.728Z,100304.13
2019-03-12T03:10:37.648Z,100308.85
2019-03-12T03:13:09.415Z,100318.41
2019-03-12T03:15:43.236Z,100319.78
2019-03-12T03:18:15.076Z,100329.67
2019-03-12T03:20:46.831Z,100330.93
2019-03-12T03:23:18.600Z,100332.48
2019-03-12T03:25:50.365Z,100334.70
2019-03-12T03:28:22.182Z,100342.77
2019-03-12T03:30:53.968Z,100341.44
2019-03-12T03:33:25.834Z,100341.74
2019-03-12T03:35:57.618Z,100348.81
2019-03-12T03:38:30.613Z,100361.08
2019-03-12T03:41:02.697Z,100366.98
2019-03-12T03:43:34.842Z,100366.34
2019-03-12T03:46:06.842Z,100368.62
2019-03-12T03:48:38.644Z,100375.55
2019-03-12T03:51:10.472Z,100379.92
2019-03-12T03:53:42.243Z,100375.63
2019-03-12T03:56:14.281Z,100380.27
2019-03-12T03:58:46.145Z,100383.44
2019-03-12T04:01:18.297Z,100380.31
2019-03-12T04:03:50.203Z,100380.23
2019-03-12T04:06:22.273Z,100383.99
2019-03-12T04:08:54.115Z,100383.77
2019-03-12T04:11:25.883Z,100385.97
2019-03-12T04:13:57.690Z,100389.48
2019-03-12T04:16:29.689Z,100394.41
2019-03-12T04:19:01.497Z,100399.66
2019-03-12T04:21:33.315Z,100406.16
2019-03-12T04:24:05.123Z,100402.72
2019-03-12T04:26:36.914Z,100407.19
2019-03-12T04:29:08.767Z,100412.56
2019-03-12T04:31:40.762Z,100410.13
2019-03-12T04:34:35.895Z,100414.09
2019-03-12T04:37:07.690Z,100418.92
2019-03-12T04:39:39.535Z,100419.77
2019-03-12T04:42:11.283Z,100422.97
2019-03-12T04:44:43.366Z,100423.46
2019-03-12T04:47:15.397Z,100424.19
2019-03-12T04:49:47.216Z,100433.70
2019-03-12T04:52:18.971Z,100433.43
2019-03-12T04:54:50.798Z,100431.80
2019-03-12T04:57:22.556Z,100437.28
2019-03-12T04:59:54.315Z,100443.59
2019-03-12T05:02:26.394Z,100450.48
2019-03-12T05:04:58.211Z,100457.69
2019-03-12T05:07:30.028Z,100467.80
2019-03-12T05:10:01.810Z,100471.75
2019-03-12T05:12:33.698Z,100475.91
2019-03-12T05:15:07.153Z,100480.43
2019-03-12T05:17:39.327Z,100482.25
2019-03-12T05:20:13.807Z,100488.30
2019-03-12T05:22:45.588Z,100490.75
2019-03-12T05:25:18.601Z,100494.59
2019-03-12T05:27:50.419Z,100499.11
2019-03-12T05:30:22.234Z,100497.47
2019-03-12T05:32:54.324Z,100502.96
2019-03-12T05:35:26.150Z,100505.37
2019-03-12T05:37:57.958Z,100504.95
2019-03-12T05:40:29.760Z,100505.97
2019-03-12T05:43:01.532Z,100510.02
2019-03-12T05:45:33.672Z,100512.92
2019-03-12T05:48:05.793Z,100534.83
2019-03-12T05:50:37.558Z,100524.44
2019-03-12T05:53:14.957Z,100529.69
2019-03-12T05:55:46.751Z,100538.23
2019-03-12T05:58:18.551Z,100534.03
2019-03-12T06:00:50.333Z,100536.78
2019-03-12T06:03:22.438Z,100549.20
2019-03-12T06:05:54.232Z,100552.83
2019-03-12T06:08:26.057Z,100547.28
2019-03-12T06:10:57.893Z,100557.30
2019-03-12T06:13:29.726Z,100555.39
2019-03-12T06:16:01.578Z,100558.05
2019-03-12T06:18:33.597Z,100565.98
2019-03-12T06:21:05.448Z,100568.05
2019-03-12T06:23:37.297Z,100578.73
2019-03-12T06:26:09.213Z,100585.38
2019-03-12T06:28:41.006Z,100585.66
2019-03-12T06:31:35.639Z,100588.15
2019-03-12T06:34:26.436Z,100592.70
2019-03-12T06:37:06.450Z,100597.60
2019-03-12T06:39:56.119Z,100592.59
2019-03-12T06:43:13.657Z,100600.33
2019-03-12T06:46:08.437Z,100603.66
2019-03-12T06:49:17.556Z,100608.53
2019-03-12T06:52:06.365Z,100612.09
2019-03-12T06:54:48.572Z,100615.67
2019-03-12T06:57:39.223Z,100620.70
2019-03-12T07:00:35.382Z,100620.22
2019-03-12T07:03:26.010Z,100619.14
2019-03-12T07:06:15.666Z,100630.19
2019-03-12T07:08:54.805Z,100629.87
2019-03-12T07:11:39.195Z,100633.44
2019-03-12T07:14:38.874Z,100638.74
2019-03-12T07:17:18.310Z,100639.93
2019-03-12T07:20:03.223Z,100647.81
2019-03-12T07:22:51.043Z,100654.97
2019-03-12T07:25:37.175Z,100658.30
2019-03-12T07:28:15.899Z,100664.67
2019-03-12T07:31:00.887Z,100657.31
2019-03-12T07:33:47.144Z,100666.78
2019-03-12T07:36:46.694Z,100668.23
2019-03-12T07:39:34.728Z,100670.86
2019-03-12T07:42:34.591Z,100663.20
2019-03-12T07:45:25.982Z,100666.67
2019-03-12T07:48:15.387Z,100660.63
2019-03-12T07:51:10.237Z,100660.39
2019-03-12T07:54:04.130Z,100665.84
2019-03-12T07:56:53.559Z,100662.18
2019-03-12T07:59:36.982Z,100664.64
2019-03-12T08:02:36.886Z,100674.30
2019-03-12T08:05:28.479Z,100669.50
2019-03-12T08:08:07.525Z,100669.47
2019-03-12T08:11:01.255Z,100671.73
2019-03-12T08:13:50.752Z,100671.37
2019-03-12T08:16:50.424Z,100679.56
2019-03-12T08:19:45.608Z,100673.58
2019-03-12T08:22:35.748Z,100677.74
2019-03-12T08:25:26.050Z,100673.96
2019-03-12T08:28:22.994Z,100677.58
2019-03-12T08:31:14.064Z,100685.42
2019-03-12T08:34:22.934Z,100687.06
2019-03-12T08:37:08.239Z,100687.80
2019-03-12T08:39:59.544Z,100694.09
2019-03-12T08:42:54.429Z,100685.94
2019-03-12T08:45:56.544Z,100683.56
2019-03-12T08:48:40.980Z,100695.17
2019-03-12T08:51:30.553Z,100689.13
2019-03-12T08:54:12.344Z,100692.49
2019-03-12T08:57:07.950Z,100702.95
2019-03-12T08:59:55.586Z,100711.09
2019-03-12T09:03:04.366Z,100708.17
2019-03-12T09:05:45.800Z,100706.02
2019-03-12T09:08:34.172Z,100716.14
2019-03-12T09:11:15.446Z,100722.34
2019-03-12T09:14:12.306Z,100724.78
2019-03-12T09:16:58.795Z,100730.47
2019-03-12T09:19:57.945Z,100722.06
2019-03-12T09:22:54.512Z,100715.95
2019-03-12T09:25:45.232Z,100722.35
2019-03-12T09:28:38.639Z,100711.53
2019-03-12T09:31:28.011Z,100705.80
2019-03-12T09:34:24.711Z,100712.53
2019-03-12T09:37:13.906Z,100715.64
2019-03-12T09:40:03.495Z,100723.05
2019-03-12T09:42:57.525Z,100717.11
2019-03-12T09:45:57.235Z,100716.67
2019-03-12T09:49:06.130Z,100709.53
2019-03-12T09:51:42.238Z,100707.13
2019-03-12T09:54:40.680Z,100706.45
2019-03-12T09:57:34.126Z,100708.27
2019-03-12T10:00:26.972Z,100698.98
2019-03-12T10:03:19.638Z,100700.67
2019-03-12T10:06:08.845Z,100701.27
2019-03-12T10:08:58.339Z,100706.31
2019-03-12T10:11:46.126Z,100713.95
2019-03-12T10:14:40.078Z,100709.27
2019-03-12T10:17:23.022Z,100724.48
2019-03-12T10:20:22.872Z,100715.88
2019-03-12T10:23:01.670Z,100721.86
2019-03-12T10:25:55.247Z,100729.58
2019-03-12T10:28:46.865Z,100735.87
2019-03-12T10:31:56.177Z,100731.64
2019-03-12T10:34:46.861Z,100736.45
2019-03-12T10:37:32.591Z,100734.64
2019-03-12T10:40:37.167Z,100736.06
2019-03-12T10:43:32.055Z,100735.80
2019-03-12T10:46:14.772Z,100733.13
2019-03-12T10:48:46.886Z,100725.48
2019-03-12T10:51:18.871Z,100717.36
2019-03-12T10:53:50.741Z,100725.81
2019-03-12T10:56:22.551Z,100727.14
2019-03-12T10:58:54.449Z,100731.42
2019-03-12T11:01:27.397Z,100728.13
2019-03-12T11:03:59.302Z,100727.96
2019-03-12T11:06:31.131Z,100728.30
2019-03-12T11:09:04.671Z,100729.11
2019-03-12T11:11:37.216Z,100723.05
2019-03-12T11:14:09.091Z,100716.80
2019-03-12T11:16:41.202Z,100722.69
2019-03-12T11:19:13.073Z,100720.25
2019-03-12T11:21:46.169Z,100711.81
2019-03-12T11:24:17.944Z,100713.20
2019-03-12T11:26:49.900Z,100706.23
2019-03-12T11:29:21.732Z,100706.98
2019-03-12T11:31:54.040Z,100705.41
2019-03-12T11:34:25.820Z,100712.20
2019-03-12T11:36:57.617Z,100709.64
2019-03-12T11:39:29.448Z,100719.48
2019-03-12T11:42:01.377Z,100720.61
2019-03-12T11:44:33.245Z,100714.63
2019-03-12T11:47:05.363Z,100719.09
2019-03-12T11:49:37.133Z,100723.14
2019-03-12T11:52:09.005Z,100705.56
2019-03-12T11:54:40.853Z,100705.02
2019-03-12T11:57:12.628Z,100699.51
2019-03-12T11:59:44.536Z,100704.95
2019-03-12T12:02:16.572Z,100706.09
2019-03-12T12:04:48.394Z,100710.01
2019-03-12T12:07:20.500Z,100706.88
2019-03-12T12:09:52.656Z,100714.55
2019-03-12T12:12:26.176Z,100706.64
2019-03-12T12:14:58.116Z,100698.59
2019-03-12T12:17:30.310Z,100698.23
2019-03-12T12:20:02.108Z,100697.59
2019-03-12T12:22:34.098Z,100702.76
2019-03-12T12:25:06.543Z,100694.83
2019-03-12T12:27:38.373Z,100688.78
2019-03-12T12:30:13.825Z,100684.84
2019-03-12T12:32:45.944Z,100680.81
2019-03-12T12:35:17.756Z,100681.84
2019-03-12T12:37:49.580Z,100686.23
2019-03-12T12:40:21.605Z,100687.99
2019-03-12T12:42:53.517Z,100697.73
2019-03-12T12:45:26.670Z,100688.43
2019-03-12T12:47:58.864Z,100686.30
2019-03-12T12:50:30.824Z,100672.22
2019-03-12T12:53:02.643Z,100677.96
2019-03-12T12:55:34.490Z,100680.44
2019-03-12T12:58:06.401Z,100677.37
2019-03-12T13:00:38.730Z,100681.23
2019-03-12T13:03:10.938Z,100678.69
2019-03-12T13:05:42.817Z,100683.16
2019-03-12T13:08:14.848Z,100680.14
2019-03-12T13:10:46.724Z,100678.81
2019-03-12T13:13:18.644Z,100669.68
2019-03-12T13:15:51.645Z,100672.84
2019-03-12T13:18:24.038Z,100679.16
2019-03-12T13:20:56.146Z,100683.64
2019-03-12T13:23:28.167Z,100683.20
2019-03-12T13:25:59.981Z,100690.56
2019-03-12T13:28:31.781Z,100678.28
2019-03-12T13:31:03.706Z,100678.38
2019-03-12T13:33:35.962Z,100681.79
2019-03-12T13:36:14.562Z,100677.08
2019-03-12T13:38:47.907Z,100672.10
2019-03-12T13:41:20.030Z,100664.99
2019-03-12T13:43:51.869Z,100672.97
2019-03-12T13:46:23.953Z,100678.78
2019-03-12T13:48:56.452Z,100666.33
2019-03-12T13:51:28.450Z,100659.58
2019-03-12T13:54:00.970Z,100663.20
2019-03-12T13:56:32.949Z,100667.37
2019-03-12T13:59:04.892Z,100666.39
2019-03-12T14:01:36.982Z,100670.72
2019-03-12T14:04:11.054Z,100662.20
2019-03-12T14:06:42.738Z,100667.36
2019-03-12T14:09:14.799Z,100660.47
2019-03-12T14:11:46.801Z,100663.92
2019-03-12T14:14:18.862Z,100664.19
2019-03-12T14:16:50.737Z,100659.73
2019-03-12T14:19:24.089Z,100663.63
2019-03-12T14:21:56.950Z,100659.20
2019-03-12T14:24:30.467Z,100660.77
2019-03-12T14:27:02.458Z,100670.84
2019-03-12T14:29:34.585Z,100670.95
2019-03-12T14:32:06.520Z,100664.84
2019-03-12T14:34:38.491Z,100667.40
2019-03-12T14:37:10.535Z,100671.17
2019-03-12T14:39:42.453Z,100674.46
2019-03-12T14:42:14.376Z,100670.45
2019-03-12T14:44:46.730Z,100665.39
2019-03-12T14:47:19.793Z,100667.53
2019-03-12T14:49:51.963Z,100667.42
2019-03-12T14:52:29.061Z,100667.37
2019-03-12T14:55:00.935Z,100660.77
2019-03-12T14:57:32.856Z,100658.14
2019-03-12T15:00:11.168Z,100660.25
2019-03-12T15:02:43.333Z,100659.27
2019-03-12T15:05:15.293Z,100677.83
2019-03-12T15:07:47.656Z,100667.92
2019-03-12T15:10:19.902Z,100675.74
2019-03-12T15:12:51.779Z,100668.77
2019-03-12T15:15:23.697Z,100656.34
2019-03-12T15:17:55.618Z,100656.33
2019-03-12T15:20:27.789Z,100663.33
2019-03-12T15:22:59.617Z,100660.59
2019-03-12T15:25:33.371Z,100657.77
2019-03-12T15:28:06.913Z,100655.80
2019-03-12T15:30:39.873Z,100654.19
2019-03-12T15:33:12.684Z,100654.98
2019-03-12T15:35:44.696Z,100640.91
2019-03-12T15:38:17.101Z,100644.70
2019-03-12T15:40:49.049Z,100640.55
2019-03-12T15:43:21.102Z,100637.34
2019-03-12T15:45:52.975Z,100641.59
2019-03-12T15:48:25.391Z,100635.68
2019-03-12T15:50:57.641Z,100646.53
2019-03-12T15:53:29.482Z,100639.48
2019-03-12T15:56:01.449Z,100638.36
2019-03-12T15:58:33.464Z,100629.42
2019-03-12T16:01:06.022Z,100626.69
2019-03-12T16:03:41.590Z,100625.97
2019-03-12T16:06:12.698Z,100625.94
2019-03-12T16:08:45.536Z,100626.55
2019-03-12T16:11:18.242Z,100621.87
2019-03-12T16:13:50.704Z,100618.27
2019-03-12T16:16:23.312Z,100610.74
2019-03-12T16:18:55.407Z,100608.39
2019-03-12T16:21:28.133Z,100604.39
2019-03-12T16:24:02.014Z,100618.75
2019-03-12T16:26:34.191Z,100608.23
2019-03-12T16:29:07.042Z,100613.06
2019-03-12T16:31:39.299Z,100621.55
2019-03-12T16:34:11.315Z,100623.15
2019-03-12T16:36:44.127Z,100616.30
2019-03-12T16:39:17.055Z,100619.08
2019-03-12T16:41:49.536Z,100619.56
2019-03-12T16:44:21.519Z,100619.08
2019-03-12T16:46:53.633Z,100615.63
2019-03-12T16:49:26.044Z,100613.73
2019-03-12T16:51:58.111Z,100617.23
2019-03-12T16:54:30.097Z,100623.08
2019-03-12T16:57:02.019Z,100624.47
2019-03-12T16:59:34.154Z,100621.22
2019-03-12T17:02:05.992Z,100619.52
2019-03-12T17:04:37.850Z,100623.61
2019-03-12T17:07:09.752Z,100619.98
2019-03-12T17:09:41.640Z,100620.16
2019-03-12T17:12:13.540Z,100623.39
2019-03-12T17:14:45.570Z,100621.37
2019-03-12T17:17:17.397Z,100619.11
2019-03-12T17:19:49.436Z,100617.88
2019-03-12T17:22:21.445Z,100622.75
2019-03-12T17:24:53.362Z,100621.05
2019-03-12T17:27:25.256Z,100624.94
2019-03-12T17:29:57.078Z,100624.14
2019-03-12T17:32:28.940Z,100610.62
2019-03-12T17:35:01.029Z,100624.14
2019-03-12T17:37:33.090Z,100619.55
2019-03-12T17:40:05.229Z,100619.55
2019-03-12T17:42:37.283Z,100617.11
2019-03-12T17:45:10.800Z,100614.65
2019-03-12T17:47:43.929Z,100610.84
2019-03-12T17:50:17.333Z,100608.75
2019-03-12T17:52:49.566Z,100611.13
2019-03-12T17:55:22.110Z,100614.66
2019-03-12T17:57:53.988Z,100615.28
2019-03-12T18:00:28.724Z,100609.80
2019-03-12T18:03:00.941Z,100610.77
2019-03-12T18:05:33.111Z,100610.84
2019-03-12T18:08:05.467Z,100613.60
2019-03-12T18:10:37.721Z,100613.73
2019-03-12T18:13:09.964Z,100615.11
2019-03-12T18:15:42.828Z,100606.22
2019-03-12T18:18:14.739Z,100609.44
2019-03-12T18:20:46.730Z,100613.91
2019-03-12T18:23:19.057Z,100608.26
2019-03-12T18:25:51.870Z,100603.98
2019-03-12T18:28:24.046Z,100616.62
2019-03-12T18:30:56.582Z,100612.84
2019-03-12T18:33:28.656Z,100610.33
2019-03-12T18:36:00.913Z,100610.25
2019-03-12T18:38:33.024Z,100604.50
2019-03-12T18:41:04.970Z,100603.04
2019-03-12T18:43:37.882Z,100610.13
2019-03-12T18:46:09.888Z,100605.92
2019-03-12T18:48:44.529Z,100604.62
2019-03-12T18:51:15.922Z,100592.44
2019-03-12T18:53:48.118Z,100597.55
2019-03-12T18:56:19.985Z,100594.53
2019-03-12T18:58:52.110Z,100593.73
2019-03-12T19:01:24.172Z,100592.09
2019-03-12T19:03:56.481Z,100589.99
2019-03-12T19:06:28.696Z,100588.77
2019-03-12T19:09:00.860Z,100586.17
2019-03-12T19:11:37.606Z,100577.59
2019-03-12T19:14:08.305Z,100584.11
2019-03-12T19:16:40.449Z,100583.84
2019-03-12T19:19:12.815Z,100573.92
2019-03-12T19:21:44.843Z,100568.89
2019-03-12T19:24:17.156Z,100565.11
2019-03-12T19:26:49.277Z,100563.16
2019-03-12T19:29:21.250Z,100564.66
2019-03-12T19:32:10.303Z,100568.82
2019-03-12T19:34:42.397Z,100561.54
2019-03-12T19:37:14.536Z,100558.42
2019-03-12T19:39:46.687Z,100556.45
2019-03-12T19:42:19.031Z,100559.48
2019-03-12T19:44:51.056Z,100556.03
2019-03-12T19:47:23.334Z,100557.29
2019-03-12T19:49:55.213Z,100554.56
2019-03-12T19:52:27.433Z,100549.19
2019-03-12T19:54:59.331Z,100545.80
2019-03-12T19:57:31.505Z,100545.58
2019-03-12T20:00:04.175Z,100531.13
2019-03-12T20:02:37.431Z,100534.86
2019-03-12T20:05:11.412Z,100531.73
2019-03-12T20:07:43.727Z,100526.22
2019-03-12T20:11:16.828Z,100527.97
2019-03-12T20:14:59.530Z,100525.79
2019-03-12T20:18:22.927Z,100511.58
2019-03-12T20:22:09.506Z,100503.99
2019-03-12T20:25:37.961Z,100497.24
2019-03-12T20:28:58.829Z,100502.57
2019-03-12T20:32:35.450Z,100497.60
2019-03-12T20:36:30.794Z,100490.75
2019-03-12T20:40:00.167Z,100484.37
2019-03-12T20:43:55.893Z,100477.98
2019-03-12T20:47:46.080Z,100483.23
2019-03-12T20:51:41.450Z,100480.95
2019-03-12T20:55:19.721Z,100475.49
2019-03-12T20:58:52.175Z,100468.71
2019-03-12T21:02:45.119Z,100462.73
2019-03-12T21:06:11.053Z,100458.50
2019-03-12T21:09:54.808Z,100446.95
2019-03-12T21:13:30.286Z,100447.02
2019-03-12T21:17:05.641Z,100445.45
2019-03-12T21:20:41.102Z,100442.94
2019-03-12T21:23:51.349Z,100446.05
2019-03-12T21:27:35.094Z,100440.06
2019-03-12T21:30:04.380Z,100437.52
2019-03-12T21:32:36.774Z,100436.73
2019-03-12T21:35:08.974Z,100433.06
2019-03-12T21:37:41.019Z,100437.96
2019-03-12T21:40:13.200Z,100440.52
2019-03-12T21:42:45.385Z,100435.83
2019-03-12T21:45:17.489Z,100430.66
2019-03-12T21:47:50.897Z,100429.50
2019-03-12T21:50:24.353Z,100424.33
2019-03-12T21:52:56.820Z,100420.02
2019-03-12T21:55:28.753Z,100418.83
2019-03-12T21:58:00.891Z,100409.84
2019-03-12T22:00:32.858Z,100409.84
2019-03-12T22:03:04.991Z,100410.23
2019-03-12T22:05:36.836Z,100402.47
2019-03-12T22:08:08.750Z,100400.34
2019-03-12T22:10:41.051Z,100401.21
2019-03-12T22:13:13.234Z,100404.42
2019-03-12T22:15:45.114Z,100388.91
2019-03-12T22:18:17.346Z,100382.86
2019-03-12T22:20:51.408Z,100379.36
2019-03-12T22:23:25.830Z,100368.55
2019-03-12T22:25:57.657Z,100373.66
2019-03-12T22:28:29.860Z,100370.69
2019-03-12T22:31:01.710Z,100365.97
2019-03-12T22:33:33.690Z,100361.98
2019-03-12T22:36:05.972Z,100352.44
2019-03-12T22:38:37.893Z,100343.08
2019-03-12T22:41:09.972Z,100336.22
2019-03-12T22:43:41.984Z,100335.38
2019-03-12T22:46:14.096Z,100319.83
2019-03-12T22:48:45.954Z,100326.67
2019-03-12T22:51:18.006Z,100307.35
2019-03-12T22:53:50.116Z,100305.63
2019-03-12T22:56:22.298Z,100299.59
2019-03-12T22:58:54.359Z,100290.91
2019-03-12T23:01:43.755Z,100287.11
2019-03-12T23:04:33.542Z,100281.37
2019-03-12T23:07:23.265Z,100277.14
2019-03-12T23:09:56.773Z,100271.82
2019-03-12T23:12:30.450Z,100265.24
2019-03-12T23:15:02.940Z,100261.02
2019-03-12T23:17:36.436Z,100255.73
2019-03-12T23:20:10.526Z,100256.64
2019-03-12T23:22:43.969Z,100248.88
2019-03-12T23:25:16.231Z,100243.78
2019-03-12T23:27:49.752Z,100238.57
2019-03-12T23:30:22.027Z,100234.73
2019-03-12T23:32:54.519Z,100233.52
2019-03-12T23:35:26.357Z,100228.30
2019-03-12T23:37:58.244Z,100225.72
2019-03-12T23:40:30.160Z,100218.83
2019-03-12T23:43:02.128Z,100218.91
2019-03-12T23:45:33.987Z,100212.47
2019-03-12T23:48:05.876Z,100200.08
2019-03-12T23:50:37.929Z,100203.45
2019-03-12T23:53:10.105Z,100199.13
2019-03-12T23:55:42.279Z,100197.68
2019-03-12T23:58:14.285Z,100191.02
